createdAt,value
2019-05-13T00:00:44.570Z,6.90
2019-05-13T00:03:13.830Z,6.90
2019-05-13T00:05:46.801Z,6.90
2019-05-13T00:08:15.876Z,6.80
2019-05-13T00:10:45.509Z,6.80
2019-05-13T00:13:14.941Z,6.80
2019-05-13T00:15:44.472Z,6.80
2019-05-13T00:18:14.389Z,6.80
2019-05-13T00:20:44.283Z,6.80
2019-05-13T00:23:14.342Z,6.70
2019-05-13T00:25:44.401Z,6.70
2019-05-13T00:28:14.394Z,6.70
2019-05-13T00:30:44.527Z,6.60
2019-05-13T00:33:14.080Z,6.60
2019-05-13T00:35:44.234Z,6.50
2019-05-13T00:38:15.849Z,6.50
2019-05-13T00:40:44.669Z,6.50
2019-05-13T00:43:15.269Z,6.50
2019-05-13T00:45:44.600Z,6.50
2019-05-13T00:48:14.302Z,6.50
2019-05-13T00:50:44.353Z,6.40
2019-05-13T00:53:13.644Z,6.40
2019-05-13T00:55:44.563Z,6.40
2019-05-13T00:58:14.185Z,6.40
2019-05-13T01:00:44.375Z,6.40
2019-05-13T01:03:14.155Z,6.40
2019-05-13T01:05:44.439Z,6.40
2019-05-13T01:08:14.508Z,6.40
2019-05-13T01:10:45.110Z,6.30
2019-05-13T01:13:14.202Z,6.30
2019-05-13T01:15:44.345Z,6.20
2019-05-13T01:18:14.231Z,6.20
2019-05-13T01:20:43.851Z,6.20
2019-05-13T01:23:14.180Z,6.10
2019-05-13T01:25:44.450Z,6.10
2019-05-13T01:28:13.670Z,6.10
2019-05-13T01:30:43.827Z,6.00
2019-05-13T01:33:14.384Z,5.90
2019-05-13T01:35:44.524Z,5.90
2019-05-13T01:38:14.345Z,5.80
2019-05-13T01:40:44.116Z,5.80
2019-05-13T01:43:14.337Z,5.80
2019-05-13T01:45:44.334Z,5.70
2019-05-13T01:48:14.224Z,5.70
2019-05-13T01:50:44.513Z,5.70
2019-05-13T01:53:14.484Z,5.70
2019-05-13T01:55:44.437Z,5.60
2019-05-13T01:58:14.552Z,5.50
2019-05-13T02:00:44.405Z,5.50
2019-05-13T02:03:14.700Z,5.40
2019-05-13T02:05:44.357Z,5.40
2019-05-13T02:08:14.485Z,5.40
2019-05-13T02:10:54.937Z,5.30
2019-05-13T02:13:24.970Z,5.30
2019-05-13T02:15:55.431Z,5.20
2019-05-13T02:18:24.905Z,5.20
2019-05-13T02:20:55.336Z,5.10
2019-05-13T02:23:24.553Z,5.10
2019-05-13T02:25:54.688Z,5.00
2019-05-13T02:28:24.884Z,5.00
2019-05-13T02:30:55.883Z,5.00
2019-05-13T02:33:25.096Z,5.00
2019-05-13T02:35:54.156Z,4.90
2019-05-13T02:38:28.876Z,4.90
2019-05-13T02:40:54.317Z,4.80
2019-05-13T02:43:24.437Z,4.80
2019-05-13T02:45:54.415Z,4.80
2019-05-13T02:48:24.307Z,4.70
2019-05-13T02:50:54.288Z,4.70
2019-05-13T02:53:24.442Z,4.70
2019-05-13T02:55:54.076Z,4.60
2019-05-13T02:58:25.398Z,4.60
2019-05-13T03:00:54.323Z,4.50
2019-05-13T03:03:23.852Z,4.50
2019-05-13T03:05:55.241Z,4.50
2019-05-13T03:08:39.146Z,4.50
2019-05-13T03:10:54.965Z,4.40
2019-05-13T03:13:24.279Z,4.40
2019-05-13T03:16:12.847Z,4.30
2019-05-13T03:18:43.560Z,4.30
2019-05-13T03:21:12.826Z,4.30
2019-05-13T03:23:44.026Z,4.20
2019-05-13T03:26:13.930Z,4.20
2019-05-13T03:28:43.821Z,4.20
2019-05-13T03:31:16.562Z,4.20
2019-05-13T03:33:46.779Z,4.10
2019-05-13T03:36:16.811Z,4.10
2019-05-13T03:39:01.733Z,4.10
2019-05-13T03:41:17.825Z,4.00
2019-05-13T03:43:47.610Z,4.00
2019-05-13T03:46:22.445Z,4.00
2019-05-13T03:48:53.444Z,4.00
2019-05-13T03:51:23.080Z,3.90
2019-05-13T03:53:53.435Z,3.80
2019-05-13T03:56:23.868Z,3.80
2019-05-13T03:58:54.019Z,3.80
2019-05-13T04:01:24.686Z,3.80
2019-05-13T04:03:53.625Z,3.80
2019-05-13T04:06:23.654Z,3.80
2019-05-13T04:08:54.091Z,3.80
2019-05-13T04:11:23.281Z,3.90
2019-05-13T04:13:53.031Z,3.90
2019-05-13T04:16:23.738Z,4.00
2019-05-13T04:18:53.598Z,4.00
2019-05-13T04:21:23.254Z,4.10
2019-05-13T04:23:53.275Z,4.10
2019-05-13T04:26:23.886Z,4.10
2019-05-13T04:28:53.071Z,4.20
2019-05-13T04:31:22.916Z,4.20
2019-05-13T04:33:53.447Z,4.20
2019-05-13T04:36:23.807Z,4.30
2019-05-13T04:38:53.208Z,4.30
2019-05-13T04:41:23.127Z,4.30
2019-05-13T04:43:53.877Z,4.30
2019-05-13T04:46:23.545Z,4.40
2019-05-13T04:48:53.791Z,4.50
2019-05-13T04:51:23.097Z,4.50
2019-05-13T04:53:56.853Z,4.50
2019-05-13T04:56:23.185Z,4.60
2019-05-13T04:58:52.978Z,4.70
2019-05-13T05:02:15.373Z,4.80
2019-05-13T05:04:52.642Z,4.90
2019-05-13T05:07:32.785Z,5.00
2019-05-13T05:10:29.280Z,5.10
2019-05-13T05:13:12.858Z,5.10
2019-05-13T05:16:12.842Z,5.20
2019-05-13T05:19:18.112Z,5.30
2019-05-13T05:22:06.296Z,5.40
2019-05-13T05:24:53.039Z,5.50
2019-05-13T05:27:59.087Z,5.60
2019-05-13T05:31:06.375Z,5.70
2019-05-13T05:34:07.503Z,5.80
2019-05-13T05:37:16.539Z,5.80
2019-05-13T05:39:47.471Z,5.80
2019-05-13T05:42:17.263Z,5.90
2019-05-13T05:44:47.151Z,6.00
2019-05-13T05:47:17.332Z,6.10
2019-05-13T05:49:47.316Z,6.20
2019-05-13T05:52:21.285Z,6.40
2019-05-13T05:54:53.027Z,6.50
2019-05-13T05:57:24.088Z,6.60
2019-05-13T05:59:55.827Z,6.60
2019-05-13T06:02:27.371Z,6.70
2019-05-13T06:04:57.605Z,6.70
2019-05-13T06:07:26.809Z,6.70
2019-05-13T06:09:55.983Z,6.80
2019-05-13T06:12:25.834Z,6.80
2019-05-13T06:14:54.758Z,6.90
2019-05-13T06:17:24.055Z,7.00
2019-05-13T06:19:53.206Z,7.10
2019-05-13T06:22:22.073Z,7.20
2019-05-13T06:24:52.219Z,7.30
2019-05-13T06:27:22.198Z,7.40
2019-05-13T06:29:52.931Z,7.50
2019-05-13T06:32:26.244Z,7.50
2019-05-13T06:34:53.252Z,7.60
2019-05-13T06:37:22.361Z,7.70
2019-05-13T06:39:51.766Z,7.80
2019-05-13T06:42:22.240Z,7.80
2019-05-13T06:44:51.731Z,7.80
2019-05-13T06:47:21.899Z,7.90
2019-05-13T06:49:51.705Z,8.00
2019-05-13T06:52:21.265Z,8.00
2019-05-13T06:54:52.018Z,8.10
2019-05-13T06:57:22.010Z,8.10
2019-05-13T06:59:52.375Z,8.20
2019-05-13T07:02:21.756Z,8.30
2019-05-13T07:04:51.889Z,8.30
2019-05-13T07:07:21.942Z,8.40
2019-05-13T07:09:51.862Z,8.50
2019-05-13T07:12:21.881Z,8.60
2019-05-13T07:14:51.863Z,8.60
2019-05-13T07:17:22.338Z,8.70
2019-05-13T07:19:51.895Z,8.70
2019-05-13T07:22:23.045Z,8.80
2019-05-13T07:24:51.942Z,8.80
2019-05-13T07:27:22.965Z,8.90
2019-05-13T07:29:55.496Z,9.00
2019-05-13T07:32:23.164Z,9.10
2019-05-13T07:34:53.228Z,9.20
2019-05-13T07:37:23.176Z,9.30
2019-05-13T07:39:53.159Z,9.40
2019-05-13T07:42:22.368Z,9.60
2019-05-13T07:44:52.154Z,9.70
2019-05-13T07:47:22.315Z,9.90
2019-05-13T07:49:51.650Z,10.00
2019-05-13T07:52:22.719Z,10.10
2019-05-13T07:54:52.050Z,10.20
2019-05-13T07:57:21.604Z,10.30
2019-05-13T07:59:52.420Z,10.40
2019-05-13T08:02:21.734Z,10.40
2019-05-13T08:04:53.013Z,10.60
2019-05-13T08:07:22.645Z,10.70
2019-05-13T08:09:55.319Z,10.90
2019-05-13T08:12:22.475Z,11.00
2019-05-13T08:14:52.141Z,11.10
2019-05-13T08:17:22.455Z,11.30
2019-05-13T08:19:52.146Z,11.40
2019-05-13T08:22:22.135Z,11.60
2019-05-13T08:24:54.144Z,11.70
2019-05-13T08:27:30.194Z,11.80
2019-05-13T08:29:52.829Z,11.90
2019-05-13T08:32:22.197Z,11.90
2019-05-13T08:34:54.301Z,12.00
2019-05-13T08:37:21.926Z,12.10
2019-05-13T08:39:52.209Z,12.20
2019-05-13T08:42:23.573Z,12.30
2019-05-13T08:44:52.594Z,12.40
2019-05-13T08:47:22.454Z,12.60
2019-05-13T08:49:52.231Z,12.70
2019-05-13T08:52:22.064Z,12.80
2019-05-13T08:54:52.393Z,12.90
2019-05-13T08:57:22.125Z,13.00
2019-05-13T08:59:51.790Z,13.00
2019-05-13T09:02:22.130Z,13.10
2019-05-13T09:04:51.644Z,13.10
2019-05-13T09:07:24.037Z,13.20
2019-05-13T09:09:51.651Z,13.30
2019-05-13T09:12:29.630Z,13.30
2019-05-13T09:14:52.390Z,13.40
2019-05-13T09:17:21.929Z,13.50
2019-05-13T09:19:52.004Z,13.50
2019-05-13T09:22:21.438Z,13.60
2019-05-13T09:24:53.030Z,13.60
2019-05-13T09:27:22.590Z,13.70
2019-05-13T09:29:51.931Z,13.80
2019-05-13T09:32:21.604Z,13.90
2019-05-13T09:34:52.440Z,14.00
2019-05-13T09:37:22.595Z,14.10
2019-05-13T09:40:14.111Z,14.20
2019-05-13T09:42:49.054Z,14.20
2019-05-13T09:45:14.489Z,14.30
2019-05-13T09:47:43.410Z,14.30
2019-05-13T09:50:28.036Z,14.40
2019-05-13T09:52:43.076Z,14.40
2019-05-13T09:55:25.283Z,14.50
2019-05-13T09:57:42.723Z,14.60
2019-05-13T10:00:12.312Z,14.70
2019-05-13T10:02:42.650Z,14.80
2019-05-13T10:05:11.855Z,14.80
2019-05-13T10:07:42.512Z,14.80
2019-05-13T10:10:12.153Z,14.90
2019-05-13T10:12:42.437Z,14.90
2019-05-13T10:15:12.707Z,15.00
2019-05-13T10:17:42.942Z,15.10
2019-05-13T10:20:12.485Z,15.20
2019-05-13T10:22:42.072Z,15.30
2019-05-13T10:25:14.573Z,15.30
2019-05-13T10:27:43.549Z,15.30
2019-05-13T10:30:13.156Z,15.40
2019-05-13T10:32:42.718Z,15.50
2019-05-13T10:35:12.389Z,15.40
2019-05-13T10:37:42.064Z,15.50
2019-05-13T10:40:12.618Z,15.60
2019-05-13T10:42:43.286Z,15.70
2019-05-13T10:45:13.053Z,15.80
2019-05-13T10:47:42.438Z,15.90
2019-05-13T10:50:12.123Z,15.90
2019-05-13T10:52:42.761Z,16.00
2019-05-13T10:55:13.106Z,16.10
2019-05-13T10:57:42.515Z,16.10
2019-05-13T11:00:12.406Z,16.00
2019-05-13T11:02:42.373Z,16.10
2019-05-13T11:05:12.462Z,16.20
2019-05-13T11:07:42.093Z,16.20
2019-05-13T11:10:13.336Z,16.30
2019-05-13T11:12:42.230Z,16.40
2019-05-13T11:15:11.154Z,16.50
2019-05-13T11:17:42.463Z,16.70
2019-05-13T11:20:12.435Z,16.70
2019-05-13T11:22:41.550Z,16.60
2019-05-13T11:25:12.457Z,16.50
2019-05-13T11:27:42.134Z,16.50
2019-05-13T11:30:11.484Z,16.50
2019-05-13T11:32:42.729Z,16.50
2019-05-13T11:37:43.537Z,16.60
2019-05-13T11:40:13.220Z,16.70
2019-05-13T11:42:42.318Z,16.90
2019-05-13T11:45:12.502Z,17.00
2019-05-13T11:47:41.692Z,17.00
2019-05-13T11:50:11.583Z,17.00
2019-05-13T11:52:42.519Z,17.00
2019-05-13T11:55:13.011Z,17.10
2019-05-13T11:57:44.387Z,17.10
2019-05-13T12:00:13.983Z,17.10
2019-05-13T12:02:49.810Z,17.20
2019-05-13T12:05:13.590Z,17.30
2019-05-13T12:07:42.795Z,17.40
2019-05-13T12:10:12.501Z,17.40
2019-05-13T12:12:44.008Z,17.50
2019-05-13T12:17:43.843Z,17.60
2019-05-13T12:20:13.093Z,17.70
2019-05-13T12:22:42.762Z,17.70
2019-05-13T12:25:13.725Z,17.70
2019-05-13T12:27:42.691Z,17.70
2019-05-13T12:30:12.555Z,17.70
2019-05-13T12:32:43.812Z,17.70
2019-05-13T12:35:13.323Z,17.80
2019-05-13T12:37:43.198Z,17.90
2019-05-13T12:40:12.442Z,17.90
2019-05-13T12:42:46.268Z,17.80
2019-05-13T12:45:14.717Z,17.80
2019-05-13T12:47:44.212Z,17.80
2019-05-13T12:50:14.185Z,17.80
2019-05-13T12:52:43.986Z,17.80
2019-05-13T12:55:14.120Z,17.90
2019-05-13T12:57:43.153Z,17.80
2019-05-13T13:00:13.092Z,17.80
2019-05-13T13:02:49.985Z,17.80
2019-05-13T13:05:19.952Z,17.80
2019-05-13T13:07:44.095Z,17.70
2019-05-13T13:10:14.588Z,17.70
2019-05-13T13:12:43.727Z,17.80
2019-05-13T13:15:35.940Z,17.80
2019-05-13T13:17:43.494Z,17.80
2019-05-13T13:20:15.154Z,17.80
2019-05-13T13:22:43.871Z,17.80
2019-05-13T13:25:14.743Z,17.90
2019-05-13T13:28:15.328Z,17.90
2019-05-13T13:30:15.333Z,17.80
2019-05-13T13:32:45.613Z,17.80
2019-05-13T13:35:15.165Z,17.80
2019-05-13T13:37:45.985Z,17.80
2019-05-13T13:40:24.430Z,17.80
2019-05-13T13:42:45.842Z,18.00
2019-05-13T13:45:15.496Z,18.10
2019-05-13T13:47:45.807Z,18.10
2019-05-13T13:50:14.918Z,18.20
2019-05-13T13:52:45.745Z,18.30
2019-05-13T13:55:15.795Z,18.20
2019-05-13T13:57:45.286Z,18.10
2019-05-13T14:00:31.631Z,18.00
2019-05-13T14:02:45.069Z,18.00
2019-05-13T14:05:14.020Z,18.10
2019-05-13T14:06:28.718Z,16.60
2019-05-13T14:07:03.004Z,17.50
2019-05-13T14:07:42.849Z,18.00
2019-05-13T14:10:11.982Z,18.00
2019-05-13T14:12:41.719Z,18.10
2019-05-13T14:15:10.955Z,18.10
2019-05-13T14:17:41.563Z,18.10
2019-05-13T14:20:11.346Z,18.00
2019-05-13T14:22:41.899Z,18.10
2019-05-13T14:25:11.653Z,18.10
2019-05-13T14:27:42.044Z,18.20
2019-05-13T14:30:12.789Z,18.20
2019-05-13T14:32:42.455Z,18.00
2019-05-13T14:35:12.333Z,18.00
2019-05-13T14:37:41.252Z,18.10
2019-05-13T14:40:12.113Z,18.20
2019-05-13T14:42:42.634Z,18.30
2019-05-13T14:45:20.521Z,18.40
2019-05-13T14:47:48.539Z,18.50
2019-05-13T14:50:17.706Z,18.50
2019-05-13T14:52:46.556Z,18.50
2019-05-13T14:55:15.408Z,18.60
2019-05-13T14:57:44.321Z,18.60
2019-05-13T15:00:13.267Z,18.60
2019-05-13T15:02:42.528Z,18.50
2019-05-13T15:05:12.161Z,18.40
2019-05-13T15:07:42.158Z,18.50
2019-05-13T15:10:11.383Z,18.50
2019-05-13T15:12:41.556Z,18.60
2019-05-13T15:15:12.708Z,18.70
2019-05-13T15:17:42.579Z,18.80
2019-05-13T15:20:12.375Z,18.80
2019-05-13T15:22:42.416Z,18.70
2019-05-13T15:25:12.586Z,18.60
2019-05-13T15:27:42.141Z,18.70
2019-05-13T15:30:17.879Z,18.80
2019-05-13T15:32:43.617Z,18.80
2019-05-13T15:35:13.379Z,18.80
2019-05-13T15:37:42.338Z,18.70
2019-05-13T15:40:11.808Z,18.70
2019-05-13T15:42:40.695Z,18.60
2019-05-13T15:45:12.405Z,18.50
2019-05-13T15:47:40.858Z,18.50
2019-05-13T15:50:12.326Z,18.60
2019-05-13T15:52:43.237Z,18.70
2019-05-13T15:55:37.398Z,18.70
2019-05-13T15:57:42.869Z,18.80
2019-05-13T16:00:12.813Z,18.90
2019-05-13T16:02:42.304Z,19.00
2019-05-13T16:05:12.163Z,19.00
2019-05-13T16:07:42.011Z,19.00
2019-05-13T16:10:11.552Z,19.00
2019-05-13T16:12:40.415Z,18.90
2019-05-13T16:15:15.303Z,18.90
2019-05-13T16:17:44.490Z,19.00
2019-05-13T16:20:11.993Z,18.90
2019-05-13T16:22:42.155Z,18.80
2019-05-13T16:25:11.732Z,18.70
2019-05-13T16:27:41.689Z,18.60
2019-05-13T16:30:11.930Z,18.60
2019-05-13T16:32:42.475Z,18.70
2019-05-13T16:35:13.695Z,18.70
2019-05-13T16:37:42.494Z,18.80
2019-05-13T16:40:13.187Z,18.90
2019-05-13T16:42:42.336Z,18.80
2019-05-13T16:45:12.590Z,18.60
2019-05-13T16:47:56.934Z,18.40
2019-05-13T16:50:13.461Z,18.10
2019-05-13T16:52:42.981Z,17.80
2019-05-13T16:55:12.887Z,17.50
2019-05-13T16:57:42.476Z,17.30
2019-05-13T17:00:13.657Z,17.10
2019-05-13T17:02:42.976Z,16.90
2019-05-13T17:05:12.270Z,16.80
2019-05-13T17:07:42.160Z,16.70
2019-05-13T17:10:13.929Z,16.60
2019-05-13T17:12:43.097Z,16.40
2019-05-13T17:15:12.430Z,16.30
2019-05-13T17:17:41.255Z,16.20
2019-05-13T17:20:12.538Z,16.10
2019-05-13T17:22:42.396Z,16.00
2019-05-13T17:25:12.584Z,15.90
2019-05-13T17:27:41.768Z,15.80
2019-05-13T17:30:11.512Z,15.70
2019-05-13T17:32:40.845Z,15.50
2019-05-13T17:35:11.677Z,15.50
2019-05-13T17:37:42.178Z,15.30
2019-05-13T17:40:14.533Z,15.30
2019-05-13T17:42:43.338Z,15.10
2019-05-13T17:45:12.846Z,15.10
2019-05-13T17:47:42.053Z,15.00
2019-05-13T17:50:14.976Z,15.00
2019-05-13T17:52:44.005Z,15.00
2019-05-13T17:55:13.059Z,14.90
2019-05-13T17:57:41.969Z,14.80
2019-05-13T18:00:11.900Z,14.80
2019-05-13T18:02:41.977Z,14.70
2019-05-13T18:05:12.198Z,14.70
2019-05-13T18:07:41.937Z,14.60
2019-05-13T18:10:14.449Z,14.60
2019-05-13T18:12:43.627Z,14.60
2019-05-13T18:15:13.678Z,14.50
2019-05-13T18:17:42.762Z,14.50
2019-05-13T18:20:11.809Z,14.40
2019-05-13T18:22:41.994Z,14.30
2019-05-13T18:25:12.171Z,14.30
2019-05-13T18:27:41.736Z,14.20
2019-05-13T18:30:11.566Z,14.20
2019-05-13T18:32:40.484Z,14.10
2019-05-13T18:35:12.049Z,14.10
2019-05-13T18:37:41.959Z,14.00
2019-05-13T18:40:11.684Z,14.00
2019-05-13T18:42:42.107Z,13.90
2019-05-13T18:45:11.862Z,13.90
2019-05-13T18:47:41.065Z,13.80
2019-05-13T18:50:11.617Z,13.70
2019-05-13T18:52:41.995Z,13.70
2019-05-13T18:55:12.488Z,13.60
2019-05-13T18:57:41.794Z,13.60
2019-05-13T19:00:12.614Z,13.40
2019-05-13T19:02:41.640Z,13.40
2019-05-13T19:05:11.946Z,13.30
2019-05-13T19:07:41.801Z,13.20
2019-05-13T19:10:11.605Z,13.20
2019-05-13T19:12:42.138Z,13.10
2019-05-13T19:15:11.539Z,13.00
2019-05-13T19:17:41.492Z,13.00
2019-05-13T19:20:12.385Z,12.90
2019-05-13T19:22:41.500Z,12.80
2019-05-13T19:25:11.986Z,12.70
2019-05-13T19:27:41.572Z,12.70
2019-05-13T19:30:12.110Z,12.60
2019-05-13T19:32:41.819Z,12.50
2019-05-13T19:35:11.752Z,12.40
2019-05-13T19:37:42.427Z,12.30
2019-05-13T19:40:12.996Z,12.20
2019-05-13T19:42:42.254Z,12.20
2019-05-13T19:45:11.434Z,12.10
2019-05-13T19:47:41.777Z,12.00
2019-05-13T19:50:12.308Z,11.90
2019-05-13T19:52:41.581Z,11.80
2019-05-13T19:55:12.117Z,11.70
2019-05-13T19:57:42.553Z,11.60
2019-05-13T20:00:14.160Z,11.50
2019-05-13T20:02:42.613Z,11.40
2019-05-13T20:05:11.568Z,11.30
2019-05-13T20:07:41.976Z,11.20
2019-05-13T20:10:12.033Z,11.10
2019-05-13T20:12:42.015Z,11.00
2019-05-13T20:15:11.831Z,10.90
2019-05-13T20:17:41.659Z,10.80
2019-05-13T20:20:12.431Z,10.70
2019-05-13T20:22:42.169Z,10.60
2019-05-13T20:25:13.116Z,10.60
2019-05-13T20:27:42.279Z,10.50
2019-05-13T20:30:11.505Z,10.40
2019-05-13T20:32:40.741Z,10.30
2019-05-13T20:35:11.497Z,10.30
2019-05-13T20:37:40.440Z,10.20
2019-05-13T20:40:11.513Z,10.10
2019-05-13T20:42:41.394Z,10.10
2019-05-13T20:45:14.254Z,10.00
2019-05-13T20:47:43.119Z,9.90
2019-05-13T20:50:12.645Z,9.80
2019-05-13T20:52:42.093Z,9.70
2019-05-13T20:55:11.355Z,9.60
2019-05-13T20:57:41.735Z,9.60
2019-05-13T21:00:11.721Z,9.50
2019-05-13T21:02:41.814Z,9.40
2019-05-13T21:05:12.163Z,9.40
2019-05-13T21:07:41.736Z,9.30
2019-05-13T21:10:12.164Z,9.20
2019-05-13T21:12:42.041Z,9.20
2019-05-13T21:15:12.934Z,9.10
2019-05-13T21:17:42.099Z,9.10
2019-05-13T21:20:19.631Z,9.00
2019-05-13T21:22:42.482Z,8.90
2019-05-13T21:25:12.118Z,8.90
2019-05-13T21:27:42.087Z,8.80
2019-05-13T21:30:11.945Z,8.70
2019-05-13T21:32:41.389Z,8.70
2019-05-13T21:35:11.860Z,8.60
2019-05-13T21:37:40.905Z,8.50
2019-05-13T21:40:11.237Z,8.40
2019-05-13T21:42:41.962Z,8.40
2019-05-13T21:45:11.682Z,8.30
2019-05-13T21:47:40.523Z,8.30
2019-05-13T21:50:11.568Z,8.20
2019-05-13T21:52:41.818Z,8.20
2019-05-13T21:55:11.482Z,8.20
2019-05-13T21:57:41.529Z,8.20
2019-05-13T22:00:19.055Z,8.20
2019-05-13T22:02:47.857Z,8.10
2019-05-13T22:05:16.825Z,8.10
2019-05-13T22:07:45.704Z,8.00
2019-05-13T22:10:17.206Z,8.00
2019-05-13T22:12:46.056Z,8.00
2019-05-13T22:15:14.989Z,7.90
2019-05-13T22:17:44.087Z,7.90
2019-05-13T22:20:13.247Z,7.90
2019-05-13T22:22:42.582Z,7.90
2019-05-13T22:25:14.081Z,7.90
2019-05-13T22:27:42.930Z,7.90
2019-05-13T22:30:12.594Z,7.80
2019-05-13T22:32:41.856Z,7.80
2019-05-13T22:35:11.273Z,7.70
2019-05-13T22:37:40.439Z,7.70
2019-05-13T22:40:11.220Z,7.70
2019-05-13T22:42:41.497Z,7.70
2019-05-13T22:45:11.646Z,7.70
2019-05-13T22:47:41.734Z,7.80
2019-05-13T22:50:11.602Z,7.70
2019-05-13T22:52:41.963Z,7.70
2019-05-13T22:55:11.663Z,7.80
2019-05-13T22:57:42.005Z,7.70
2019-05-13T23:00:11.871Z,7.70
2019-05-13T23:02:42.192Z,7.80
2019-05-13T23:05:11.659Z,7.80
2019-05-13T23:07:40.632Z,7.80
2019-05-13T23:10:11.786Z,7.80
2019-05-13T23:12:42.075Z,7.70
2019-05-13T23:15:11.904Z,7.80
2019-05-13T23:17:41.551Z,7.70
2019-05-13T23:20:10.677Z,7.70
2019-05-13T23:22:41.497Z,7.70
2019-05-13T23:25:12.166Z,7.60
2019-05-13T23:27:41.531Z,7.60
2019-05-13T23:30:11.638Z,7.60
2019-05-13T23:32:40.778Z,7.60
2019-05-13T23:35:11.133Z,7.50
2019-05-13T23:37:41.672Z,7.50
2019-05-13T23:40:11.840Z,7.40
2019-05-13T23:42:41.054Z,7.30
2019-05-13T23:45:11.457Z,7.30
2019-05-13T23:47:41.689Z,7.30
2019-05-13T23:50:12.470Z,7.20
2019-05-13T23:52:42.814Z,7.20
2019-05-13T23:55:11.807Z,7.10
2019-05-13T23:57:42.111Z,7.10
